Time;durP1;ratioP1;P1;durP2;ratioP2;P2;SDS_P1;SDS_P2;PMS_P1;PMS_P2;Temp;Humidity;BMP_temperature;BMP_pressure;BME280_temperature;BME280_humidity;BME280_pressure;Samples;Min_cycle;Max_cycle;Signal;HPM_P1;HPM_P2
2023/10/03 00:00:33;;;;;;;42.53;22.40;;;;;;;17.46;100.00;101104.47;4882719;29;20052;-78
2023/10/03 00:03:08;;;;;;;42.28;23.08;;;;;;;17.45;100.00;101092.97;4896136;29;20067;-78
2023/10/03 00:05:36;;;;;;;39.97;23.10;;;;;;;17.45;100.00;101092.97;4872927;29;20052;-77
2023/10/03 00:08:05;;;;;;;44.47;25.17;;;;;;;17.43;100.00;101086.78;4910201;29;20068;-78
2023/10/03 00:10:33;;;;;;;41.10;22.73;;;;;;;17.43;100.00;101084.13;4853276;29;21402;-78
2023/10/03 00:13:01;;;;;;;44.05;23.13;;;;;;;17.42;100.00;101082.34;4896448;29;20052;-78
2023/10/03 00:15:28;;;;;;;44.47;22.67;;;;;;;17.42;100.00;101070.84;4876808;29;20060;-77
2023/10/03 00:17:56;;;;;;;43.00;21.60;;;;;;;17.42;100.00;101066.38;4863835;29;20048;-78
2023/10/03 00:20:23;;;;;;;42.45;21.60;;;;;;;17.42;100.00;101066.38;4853982;29;20041;-78
2023/10/03 00:22:51;;;;;;;45.97;22.40;;;;;;;17.40;100.00;101060.19;4894190;29;20040;-78
2023/10/03 00:25:26;;;;;;;38.83;22.05;;;;;;;17.41;100.00;101063.72;4847255;29;20064;-78
2023/10/03 00:27:59;;;;;;;44.78;21.73;;;;;;;17.40;100.00;101056.66;4893831;29;20053;-77
2023/10/03 00:30:28;;;;;;;42.90;23.85;;;;;;;17.40;100.00;101056.66;4891884;29;20154;-78
2023/10/03 00:32:57;;;;;;;41.80;22.20;;;;;;;17.39;100.00;101038.91;4909017;29;20512;-78
2023/10/03 00:35:26;;;;;;;42.25;22.13;;;;;;;17.39;100.00;101033.59;4883602;29;20089;-77
2023/10/03 00:37:54;;;;;;;41.47;23.33;;;;;;;17.38;100.00;101032.72;4892420;29;20441;-77
2023/10/03 00:42:59;;;;;;;45.92;23.98;;;;;;;17.37;100.00;101006.13;4892917;29;20057;-77
2023/10/03 00:45:29;;;;;;;39.45;22.75;;;;;;;17.36;100.00;100991.06;4873858;29;20048;-77
2023/10/03 00:48:01;;;;;;;52.38;25.40;;;;;;;17.36;100.00;100980.41;4894551;29;20045;-77
2023/10/03 00:50:31;;;;;;;43.38;24.10;;;;;;;17.36;100.00;100969.75;4871723;29;21432;-77
2023/10/03 00:53:09;;;;;;;42.60;24.45;;;;;;;17.34;100.00;100959.13;4884331;29;20060;-77
2023/10/03 00:55:39;;;;;;;39.53;23.67;;;;;;;17.34;100.00;100952.00;4895207;29;20048;-77
2023/10/03 01:00:41;;;;;;;48.13;23.90;;;;;;;17.34;100.00;100938.69;4907819;29;20056;-77
2023/10/03 01:03:28;;;;;;;48.75;24.58;;;;;;;17.36;100.00;100919.16;4892400;29;20060;-77
2023/10/03 01:05:58;;;;;;;43.63;23.92;;;;;;;17.36;100.00;100895.19;4897626;29;20071;-77
2023/10/03 01:08:29;;;;;;;40.65;23.63;;;;;;;17.33;100.00;100881.03;4859830;29;20053;-77
2023/10/03 01:10:58;;;;;;;42.93;22.80;;;;;;;17.33;100.00;100858.81;4907456;29;20048;-77
2023/10/03 01:13:27;;;;;;;44.03;21.88;;;;;;;17.32;100.00;100846.44;4846163;29;20067;-77
2023/10/03 01:15:55;;;;;;;38.47;22.20;;;;;;;17.31;100.00;100829.56;4883608;29;20059;-77
2023/10/03 01:18:26;;;;;;;35.47;21.65;;;;;;;17.30;100.00;100817.16;4891526;29;20063;-77
2023/10/03 01:21:00;;;;;;;40.58;23.17;;;;;;;17.30;100.00;100832.28;4897683;29;20052;-77
2023/10/03 01:23:35;;;;;;;35.33;21.48;;;;;;;17.29;100.00;100834.03;4853022;29;20063;-77
2023/10/03 01:26:04;;;;;;;39.00;22.17;;;;;;;17.27;100.00;100827.88;4903142;29;20053;-77
2023/10/03 01:28:33;;;;;;;41.38;23.35;;;;;;;17.26;100.00;100831.47;4842602;29;20048;-77
2023/10/03 01:31:02;;;;;;;39.47;22.63;;;;;;;17.26;100.00;100841.25;4866241;29;20056;-77
2023/10/03 01:33:31;;;;;;;40.63;23.15;;;;;;;17.24;100.00;100843.06;4886773;29;20053;-77
2023/10/03 01:36:00;;;;;;;37.15;20.60;;;;;;;17.22;100.00;100837.78;4873945;29;20383;-77
2023/10/03 01:38:28;;;;;;;38.78;22.30;;;;;;;17.21;100.00;100835.16;4846756;29;20494;-77
2023/10/03 01:41:00;;;;;;;40.15;22.98;;;;;;;17.20;100.00;100828.06;4873356;29;20057;-77
2023/10/03 01:43:28;;;;;;;40.42;23.15;;;;;;;17.17;100.00;100815.72;4825111;29;20091;-77
2023/10/03 01:45:55;;;;;;;36.25;20.70;;;;;;;17.14;100.00;100819.34;4874609;29;20041;-77
2023/10/03 01:48:23;;;;;;;35.45;21.50;;;;;;;17.13;100.00;100803.41;4885093;29;20401;-77
2023/10/03 01:50:51;;;;;;;39.42;22.77;;;;;;;17.10;100.00;100791.03;4860402;29;20067;-77
2023/10/03 01:53:18;;;;;;;39.78;22.23;;;;;;;17.07;100.00;100777.81;4832966;29;20045;-77
2023/10/03 01:55:47;;;;;;;33.85;20.02;;;;;;;17.06;100.00;100769.84;4872458;29;20363;-77
2023/10/03 01:58:15;;;;;;;36.10;20.38;;;;;;;17.03;100.00;100761.94;4859271;29;20059;-77
2023/10/03 02:00:42;;;;;;;38.40;20.92;;;;;;;17.02;100.00;100754.88;4864268;29;20049;-77
2023/10/03 02:03:16;;;;;;;37.25;20.25;;;;;;;17.00;100.00;100732.75;4882064;29;20432;-77
2023/10/03 02:05:43;;;;;;;45.55;22.05;;;;;;;16.98;100.00;100727.47;4855537;29;20042;-77
2023/10/03 02:08:18;;;;;;;35.97;20.52;;;;;;;16.97;100.00;100719.50;4876420;29;20052;-77
2023/10/03 02:10:47;;;;;;;35.58;19.85;;;;;;;16.94;100.00;100700.03;4873268;29;20053;-77
2023/10/03 02:13:17;;;;;;;38.53;21.25;;;;;;;16.93;100.00;100705.41;4886393;29;20421;-77
2023/10/03 02:15:46;;;;;;;38.60;21.02;;;;;;;16.91;100.00;100688.59;4815709;29;20049;-77
2023/10/03 02:18:18;;;;;;;32.05;18.25;;;;;;;16.90;100.00;100693.06;4855549;29;20052;-77
2023/10/03 02:20:59;;;;;;;40.33;20.15;;;;;;;16.87;100.00;100685.13;4888264;29;20065;-77
2023/10/03 02:23:28;;;;;;;35.75;19.95;;;;;;;16.85;100.00;100657.69;4862287;29;20056;-77
2023/10/03 02:25:58;;;;;;;31.92;18.73;;;;;;;16.84;100.00;100647.97;4873837;29;20040;-76
2023/10/03 02:28:28;;;;;;;36.25;19.73;;;;;;;16.83;100.00;100629.38;4854383;29;20693;-77
2023/10/03 02:30:56;;;;;;;35.83;19.30;;;;;;;16.80;100.00;100630.28;4837358;29;20053;-78
2023/10/03 02:33:24;;;;;;;35.22;19.00;;;;;;;16.80;100.00;100632.06;4895530;29;20586;-77
2023/10/03 02:35:51;;;;;;;37.58;19.08;;;;;;;16.79;100.00;100617.03;4907234;29;20045;-77
2023/10/03 02:38:25;;;;;;;34.60;19.33;;;;;;;16.78;100.00;100610.81;4873324;29;20060;-77
2023/10/03 02:40:58;;;;;;;36.05;19.27;;;;;;;16.76;100.00;100605.53;4869843;29;20056;-77
2023/10/03 02:43:35;;;;;;;34.95;19.27;;;;;;;16.75;100.00;100587.84;4875382;29;20053;-77
2023/10/03 02:46:12;;;;;;;34.30;18.42;;;;;;;16.75;100.00;100584.31;4829475;29;20044;-77
2023/10/03 02:48:45;;;;;;;33.40;17.88;;;;;;;16.74;100.00;100578.09;4868987;29;20075;-77
2023/10/03 02:51:14;;;;;;;34.22;18.65;;;;;;;16.73;100.00;100571.03;4869415;29;20055;-77
2023/10/03 02:53:43;;;;;;;34.05;18.63;;;;;;;16.72;100.00;100558.63;4867795;29;20072;-77
2023/10/03 02:56:13;;;;;;;38.72;19.15;;;;;;;16.71;100.00;100556.91;4875258;29;20047;-77
2023/10/03 02:58:41;;;;;;;34.47;18.17;;;;;;;16.70;100.00;100547.16;4899571;29;20432;-77
2023/10/03 03:01:09;;;;;;;33.35;17.20;;;;;;;16.71;100.00;100559.56;4883224;29;20044;-77
2023/10/03 03:03:38;;;;;;;35.65;19.33;;;;;;;16.72;100.00;100568.41;4839500;29;20052;-77
2023/10/03 03:06:14;;;;;;;35.05;18.83;;;;;;;16.73;100.00;100570.19;4864668;29;20044;-77
2023/10/03 03:08:44;;;;;;;33.78;18.70;;;;;;;16.73;100.00;100556.88;4887781;29;20055;-77
2023/10/03 03:11:16;;;;;;;34.42;18.38;;;;;;;16.75;100.00;100571.88;4868040;29;20057;-77
2023/10/03 03:13:43;;;;;;;34.22;18.30;;;;;;;16.77;100.00;100561.19;4876213;29;20052;-77
2023/10/03 03:16:14;;;;;;;33.30;17.77;;;;;;;16.76;100.00;100554.13;4883601;29;20045;-77
2023/10/03 03:18:42;;;;;;;35.47;18.45;;;;;;;16.77;100.00;100550.56;4802187;29;20048;-77
2023/10/03 03:21:15;;;;;;;36.25;17.83;;;;;;;16.75;100.00;100520.47;4886130;29;20063;-78
2023/10/03 03:24:08;;;;;;;33.28;17.90;;;;;;;16.75;100.00;100534.63;4866669;29;20067;-77
2023/10/03 03:26:39;;;;;;;34.67;17.30;;;;;;;16.74;100.00;100529.34;4863951;29;20041;-77
2023/10/03 03:29:31;;;;;;;37.28;17.83;;;;;;;16.75;100.00;100518.66;4869778;29;20060;-77
2023/10/03 03:31:58;;;;;;;34.78;18.58;;;;;;;16.74;100.00;100530.19;4879319;29;20063;-77
2023/10/03 03:34:26;;;;;;;40.67;19.15;;;;;;;16.75;100.00;100510.69;4846926;29;20048;-77
2023/10/03 03:37:14;;;;;;;34.03;18.55;;;;;;;16.75;100.00;100513.34;4894435;29;20049;-78
2023/10/03 03:40:09;;;;;;;35.42;18.50;;;;;;;16.75;100.00;100516.00;4878149;29;20049;-79
2023/10/03 03:42:37;;;;;;;34.55;17.10;;;;;;;16.76;100.00;100507.09;4857094;29;20049;-77
2023/10/03 03:45:06;;;;;;;38.38;18.10;;;;;;;16.79;100.00;100499.97;4872309;29;20423;-77
2023/10/03 03:47:33;;;;;;;33.42;17.40;;;;;;;16.79;100.00;100503.50;4880778;29;20079;-77
2023/10/03 03:50:04;;;;;;;32.20;17.90;;;;;;;16.81;100.00;100498.13;4855712;29;20511;-78
2023/10/03 03:52:34;;;;;;;34.25;18.85;;;;;;;16.83;100.00;100489.22;4886648;29;20072;-77
2023/10/03 03:55:03;;;;;;;33.65;17.70;;;;;;;16.85;100.00;100490.03;4892866;29;20063;-77
2023/10/03 03:57:31;;;;;;;32.67;16.03;;;;;;;16.87;100.00;100468.72;4897323;29;20104;-77
2023/10/03 03:59:58;;;;;;;47.72;18.38;;;;;;;16.88;100.00;100483.75;4893692;29;20800;-77
2023/10/03 04:02:25;;;;;;;32.33;17.15;;;;;;;16.89;100.00;100497.00;4854235;29;20051;-77
2023/10/03 04:04:53;;;;;;;28.98;16.20;;;;;;;16.90;100.00;100488.13;4833537;29;20048;-77
2023/10/03 04:07:20;;;;;;;32.05;16.38;;;;;;;16.91;100.00;100484.53;4884405;29;20049;-77
2023/10/03 04:09:48;;;;;;;30.65;16.92;;;;;;;16.93;100.00;100476.50;4893584;29;20485;-77
2023/10/03 04:12:15;;;;;;;36.55;18.17;;;;;;;16.93;100.00;100472.03;4874552;29;20086;-77
2023/10/03 04:14:42;;;;;;;34.20;17.23;;;;;;;16.95;100.00;100466.69;4891729;29;20052;-77
2023/10/03 04:17:15;;;;;;;29.92;15.95;;;;;;;16.96;100.00;100457.78;4880800;29;20063;-77
2023/10/03 04:19:43;;;;;;;32.72;16.75;;;;;;;16.99;100.00;100452.38;4883262;29;20669;-77
2023/10/03 04:22:10;;;;;;;31.10;16.52;;;;;;;17.00;100.00;100446.13;4812916;29;20064;-77
2023/10/03 04:24:37;;;;;;;32.53;16.17;;;;;;;17.01;100.00;100455.84;4891872;29;20555;-77
2023/10/03 04:27:07;;;;;;;34.03;17.73;;;;;;;17.02;100.00;100449.63;4846892;29;20041;-77
2023/10/03 04:29:34;;;;;;;33.60;18.03;;;;;;;17.02;100.00;100440.78;4875692;29;20052;-78
2023/10/03 04:32:01;;;;;;;30.25;15.68;;;;;;;17.01;100.00;100433.69;4891770;29;20424;-77
2023/10/03 04:34:29;;;;;;;36.35;16.90;;;;;;;17.01;100.00;100433.69;4872165;29;20076;-77
2023/10/03 04:36:57;;;;;;;29.75;15.18;;;;;;;17.00;100.00;100427.50;4850799;29;20040;-77
2023/10/03 04:39:24;;;;;;;32.30;16.77;;;;;;;16.99;100.00;100431.06;4885991;29;20048;-77
2023/10/03 04:41:53;;;;;;;34.38;16.50;;;;;;;17.01;100.00;100433.69;4893499;29;20048;-77
2023/10/03 04:44:20;;;;;;;32.25;16.70;;;;;;;17.00;100.00;100435.50;4881945;29;20819;-77
2023/10/03 04:46:48;;;;;;;31.20;15.73;;;;;;;17.02;100.00;100425.66;4894772;29;20059;-77
2023/10/03 04:49:16;;;;;;;32.13;16.88;;;;;;;17.02;100.00;100423.00;4890173;29;20060;-77
2023/10/03 04:51:45;;;;;;;32.75;16.27;;;;;;;17.04;100.00;100429.16;4838574;29;20048;-77
2023/10/03 04:54:14;;;;;;;;;;;;;;;17.04;100.00;100430.94;4880120;29;20057;-76
2023/10/03 04:56:44;;;;;;;32.95;15.70;;;;;;;17.06;100.00;100424.66;4881592;29;19927;-77
2023/10/03 04:59:13;;;;;;;28.45;15.57;;;;;;;17.09;100.00;100429.03;4871727;29;20851;-76
2023/10/03 05:01:40;;;;;;;35.05;15.25;;;;;;;17.13;100.00;100425.34;4882025;29;20150;-77
2023/10/03 05:04:07;;;;;;;27.50;14.90;;;;;;;17.18;100.00;100431.38;4886749;29;20045;-77
2023/10/03 05:06:35;;;;;;;27.73;14.73;;;;;;;17.25;100.00;100424.09;4835686;29;20055;-77
2023/10/03 05:09:04;;;;;;;31.95;14.80;;;;;;;17.32;100.00;100425.66;4854264;29;20489;-76
2023/10/03 05:11:32;;;;;;;30.38;14.43;;;;;;;17.41;100.00;100430.69;4846863;29;20068;-77
2023/10/03 05:14:01;;;;;;;28.17;14.65;;;;;;;17.47;100.00;100419.84;4892292;29;20051;-77
2023/10/03 05:16:29;;;;;;;31.80;14.98;;;;;;;17.57;100.00;100424.88;4882209;29;20053;-77
2023/10/03 05:18:56;;;;;;;24.27;13.05;;;;;;;17.64;100.00;100416.63;4885793;29;20052;-77
2023/10/03 05:21:23;;;;;;;27.95;11.70;;;;;;;17.71;100.00;100419.94;4862257;29;20416;-77
2023/10/03 05:23:52;;;;;;;26.08;12.52;;;;;;;17.77;100.00;100419.75;4857833;29;20044;-78
2023/10/03 05:26:21;;;;;;;30.20;12.70;;;;;;;17.82;100.00;100419.59;4874562;29;20469;-77
2023/10/03 05:28:48;;;;;;;26.85;12.65;;;;;;;17.84;100.00;100418.63;4886613;29;20118;-77
2023/10/03 05:31:17;;;;;;;29.63;13.05;;;;;;;17.85;100.00;100417.72;4895657;29;20060;-78
2023/10/03 05:33:44;;;;;;;32.13;12.73;;;;;;;17.86;100.00;100406.16;4888766;29;20075;-77
2023/10/03 05:36:22;;;;;;;24.00;12.05;;;;;;;17.86;100.00;100406.16;4892650;29;20067;-77
2023/10/03 05:38:49;;;;;;;27.20;13.15;;;;;;;17.86;100.00;100414.16;4850284;29;20048;-78
2023/10/03 05:41:21;;;;;;;29.00;12.02;;;;;;;17.86;100.00;100411.50;4898700;29;20072;-77
2023/10/03 05:43:54;;;;;;;28.35;12.15;;;;;;;17.86;100.00;100427.47;4877408;29;20071;-77
2023/10/03 05:46:22;;;;;;;26.00;12.05;;;;;;;17.87;100.00;100415.88;4886090;29;20056;-77
2023/10/03 05:48:51;;;;;;;22.08;11.57;;;;;;;17.88;100.00;100424.72;4896050;29;20060;-78
2023/10/03 05:51:20;;;;;;;23.83;11.90;;;;;;;17.88;100.00;100432.72;4874717;29;20045;-77
2023/10/03 05:53:48;;;;;;;24.48;12.52;;;;;;;17.91;100.00;100417.50;4840647;29;20036;-77
2023/10/03 05:56:15;;;;;;;27.35;12.02;;;;;;;17.92;100.00;100405.94;4884664;29;20049;-79
2023/10/03 05:58:43;;;;;;;27.70;12.38;;;;;;;17.93;100.00;100407.66;4894391;29;20056;-79
2023/10/03 06:01:12;;;;;;;27.42;12.10;;;;;;;17.97;100.00;100410.25;4893960;29;20114;-79
2023/10/03 06:03:40;;;;;;;24.30;10.90;;;;;;;17.98;100.00;100414.66;4892334;29;20060;-79
2023/10/03 06:06:07;;;;;;;23.48;12.07;;;;;;;18.00;100.00;100410.16;4892520;29;20044;-78
2023/10/03 06:08:35;;;;;;;30.08;12.18;;;;;;;18.01;100.00;100403.88;4834895;29;20057;-79
2023/10/03 06:11:03;;;;;;;25.35;11.65;;;;;;;18.04;100.00;100417.09;4885354;29;20040;-78
2023/10/03 06:13:31;;;;;;;25.77;11.40;;;;;;;18.05;100.00;100418.81;4859071;29;20075;-78
2023/10/03 06:16:03;;;;;;;33.00;12.75;;;;;;;18.07;100.00;100430.31;4904588;29;20621;-78
2023/10/03 06:18:30;;;;;;;26.63;11.60;;;;;;;18.09;100.00;100433.78;4884028;29;20064;-79
2023/10/03 06:20:57;;;;;;;28.05;12.65;;;;;;;18.11;100.00;100431.97;4891178;29;20063;-78
2023/10/03 06:23:25;;;;;;;25.83;11.43;;;;;;;18.13;100.00;100430.13;4863841;29;20053;-78
2023/10/03 06:25:53;;;;;;;33.10;12.20;;;;;;;18.16;100.00;100447.81;4883945;29;20071;-79
2023/10/03 06:28:21;;;;;;;27.77;11.95;;;;;;;18.17;100.00;100441.56;4867168;29;20057;-78
2023/10/03 06:30:51;;;;;;;29.25;12.30;;;;;;;18.19;100.00;100442.38;4888780;29;20049;-78
2023/10/03 06:33:18;;;;;;;25.98;12.60;;;;;;;18.21;100.00;100446.72;4872741;29;20041;-78
2023/10/03 06:35:45;;;;;;;26.15;11.02;;;;;;;18.23;100.00;100452.88;4882767;29;20060;-79
2023/10/03 06:38:15;;;;;;;27.98;11.55;;;;;;;18.25;100.00;100448.34;4884565;29;20056;-78
2023/10/03 06:40:43;;;;;;;26.17;11.25;;;;;;;18.29;100.00;100441.97;4851053;29;20049;-78
2023/10/03 06:43:11;;;;;;;23.60;11.05;;;;;;;18.35;100.00;100445.34;4885848;29;20045;-78
2023/10/03 06:45:40;;;;;;;30.70;14.57;;;;;;;18.40;100.00;100440.75;4900701;29;20051;-77
2023/10/03 06:48:07;;;;;;;32.65;12.75;;;;;;;18.43;100.00;100453.94;4898664;29;20068;-77
2023/10/03 06:50:35;;;;;;;21.08;10.57;;;;;;;18.44;100.00;100458.38;4882175;29;20057;-77
2023/10/03 06:53:05;;;;;;;26.08;10.52;;;;;;;18.45;100.00;100458.31;4891450;29;20079;-78
2023/10/03 06:55:35;;;;;;;24.45;10.07;;;;;;;18.45;100.00;100473.44;4833259;29;20659;-77
2023/10/03 06:58:03;;;;;;;21.02;10.20;;;;;;;18.46;100.00;100467.19;4892301;29;20041;-77
2023/10/03 07:00:32;;;;;;;22.48;9.65;;;;;;;18.44;100.00;100469.03;4871412;29;20452;-77
2023/10/03 07:02:59;;;;;;;24.88;11.15;;;;;;;18.42;100.00;100476.22;4887346;29;20059;-78
2023/10/03 07:05:34;;;;;;;21.67;10.15;;;;;;;18.38;100.00;100471.94;4901775;29;20539;-79
2023/10/03 07:08:05;;;;;;;24.13;10.32;;;;;;;18.33;100.00;100474.75;4858487;29;20060;-77
2023/10/03 07:10:32;;;;;;;30.52;9.75;;;;;;;18.29;100.00;100491.78;4822066;29;20053;-77
2023/10/03 07:13:01;;;;;;;21.80;9.77;;;;;;;18.25;100.00;100498.16;4848232;29;20071;-79
2023/10/03 07:15:29;;;;;;;29.67;10.45;;;;;;;18.23;100.00;100494.66;4861798;29;20614;-78
2023/10/03 07:17:57;;;;;;;21.52;9.57;;;;;;;18.18;100.00;100513.47;4888175;29;20052;-78
2023/10/03 07:20:25;;;;;;;19.95;8.75;;;;;;;18.14;100.00;100519.84;4888167;29;20504;-78
2023/10/03 07:22:52;;;;;;;24.70;9.48;;;;;;;18.11;100.00;100527.97;4874294;29;20067;-78
2023/10/03 07:25:19;;;;;;;19.48;8.10;;;;;;;18.09;100.00;100528.00;4895383;29;20056;-78
2023/10/03 07:27:48;;;;;;;26.80;7.90;;;;;;;18.05;100.00;100526.38;4827273;29;20251;-77
2023/10/03 07:30:15;;;;;;;25.52;9.10;;;;;;;18.02;100.00;100533.59;4881183;29;20056;-78
2023/10/03 07:32:43;;;;;;;20.00;8.30;;;;;;;17.93;100.00;100532.94;4887839;29;20049;-78
2023/10/03 07:35:12;;;;;;;26.10;9.13;;;;;;;17.89;100.00;100549.97;4877266;29;20532;-78
2023/10/03 07:37:40;;;;;;;19.13;9.15;;;;;;;17.84;100.00;100554.56;4887192;29;20048;-78
2023/10/03 07:40:09;;;;;;;17.20;7.75;;;;;;;17.78;100.00;100562.72;4879854;29;20048;-78
2023/10/03 07:42:38;;;;;;;21.15;7.70;;;;;;;17.71;100.00;100564.72;4830950;29;20056;-78
2023/10/03 07:45:08;;;;;;;21.02;8.80;;;;;;;17.67;100.00;100572.84;4889760;29;20052;-78
2023/10/03 07:47:37;;;;;;;21.80;8.73;;;;;;;17.60;100.00;100584.59;4864856;29;20051;-78
2023/10/03 07:50:05;;;;;;;26.90;7.47;;;;;;;17.55;100.00;100582.09;4889155;29;20408;-78
2023/10/03 07:52:34;;;;;;;16.77;6.90;;;;;;;17.47;100.00;100608.09;4885692;29;20539;-78
2023/10/03 07:55:03;;;;;;;20.08;6.18;;;;;;;17.38;100.00;100605.69;4882365;29;20049;-78
2023/10/03 07:57:31;;;;;;;16.40;5.43;;;;;;;17.32;100.00;100604.94;4850173;29;20489;-78
2023/10/03 07:59:58;;;;;;;16.98;5.20;;;;;;;17.30;100.00;100601.44;4891645;29;20052;-78
2023/10/03 08:02:32;;;;;;;22.17;6.35;;;;;;;17.28;100.00;100618.41;4863209;29;20056;-78
2023/10/03 08:05:02;;;;;;;20.30;5.45;;;;;;;17.25;100.00;100626.47;4878436;29;20066;-79
2023/10/03 08:07:31;;;;;;;20.52;5.13;;;;;;;17.22;100.00;100626.53;4878862;29;20528;-78
2023/10/03 08:10:02;;;;;;;19.73;6.03;;;;;;;17.18;100.00;100647.03;4887903;29;20637;-78
2023/10/03 08:12:32;;;;;;;15.38;4.57;;;;;;;17.17;100.00;100665.75;4859538;29;20063;-78
2023/10/03 08:14:59;;;;;;;13.57;4.15;;;;;;;17.12;100.00;100666.72;4883923;29;20056;-78
2023/10/03 08:17:31;;;;;;;12.50;4.03;;;;;;;17.08;100.00;100682.84;4870345;29;20041;-78
2023/10/03 08:20:04;;;;;;;16.83;3.88;;;;;;;17.01;100.00;100698.06;4893132;29;20079;-78
2023/10/03 08:22:32;;;;;;;12.48;2.25;;;;;;;16.95;100.00;100715.06;4890411;29;20052;-77
2023/10/03 08:25:00;;;;;;;7.45;2.25;;;;;;;16.86;100.00;100730.41;4896084;29;20055;-78
2023/10/03 08:27:30;;;;;;;9.32;3.17;;;;;;;16.78;100.00;100727.91;4880338;29;20063;-78
2023/10/03 08:29:58;;;;;;;9.15;2.72;;;;;;;16.71;100.00;100720.97;4836241;29;20406;-78
2023/10/03 08:32:25;;;;;;;16.95;3.17;;;;;;;16.66;100.00;100734.41;4881236;29;20535;-78
2023/10/03 08:34:53;;;;;;;9.40;2.40;;;;;;;16.61;100.00;100746.94;4877343;29;20049;-79
2023/10/03 08:37:23;;;;;;;9.60;3.00;;;;;;;16.57;100.00;100775.38;4876502;29;20071;-77
2023/10/03 08:39:51;;;;;;;13.52;2.38;;;;;;;16.53;100.00;100787.00;4892368;29;20049;-77
2023/10/03 08:42:35;;;;;;;11.02;1.90;;;;;;;16.52;100.00;100787.03;4882327;29;20056;-77
2023/10/03 08:45:16;;;;;;;8.43;1.65;;;;;;;16.53;100.00;100765.72;4847178;29;20049;-78
2023/10/03 08:47:49;;;;;;;9.65;1.83;;;;;;;16.51;100.00;100766.69;4882241;29;21624;-78
2023/10/03 08:50:34;;;;;;;9.20;2.35;;;;;;;16.49;100.00;100785.34;4894643;29;20049;-77
2023/10/03 08:53:26;;;;;;;7.68;1.85;;;;;;;16.45;100.00;100796.94;4894388;29;20044;-78
2023/10/03 08:56:01;;;;;;;11.27;1.60;;;;;;;16.45;100.00;100818.22;4904595;29;20067;-78
2023/10/03 08:58:30;;;;;;;7.97;1.60;;;;;;;16.45;100.00;100826.22;4851847;29;20052;-78
2023/10/03 09:01:03;;;;;;;7.05;1.33;;;;;;;16.42;100.00;100836.91;4877367;29;20056;-77
2023/10/03 09:03:46;;;;;;;5.03;1.73;;;;;;;16.40;100.00;100845.84;4878390;29;20048;-78
2023/10/03 09:06:22;;;;;;;2.83;0.95;;;;;;;16.34;100.00;100854.81;4891871;29;20515;-78
2023/10/03 09:08:51;;;;;;;5.78;1.00;;;;;;;16.30;100.00;100858.44;4891310;29;20056;-78
2023/10/03 09:11:20;;;;;;;5.05;1.15;;;;;;;16.25;100.00;100863.84;4893797;29;20052;-77
2023/10/03 09:13:49;;;;;;;6.13;1.42;;;;;;;16.11;100.00;100887.19;4888201;29;20059;-77
2023/10/03 09:16:16;;;;;;;4.03;0.95;;;;;;;16.00;100.00;100900.66;4841524;29;20052;-77
2023/10/03 09:18:50;;;;;;;7.10;1.20;;;;;;;15.96;100.00;100926.41;4897814;29;20097;-77
2023/10/03 09:21:24;;;;;;;7.40;1.75;;;;;;;15.89;100.00;100922.09;4892392;29;20053;-77
2023/10/03 09:24:01;;;;;;;4.72;1.30;;;;;;;15.77;100.00;100927.66;4867045;29;20049;-77
2023/10/03 09:26:47;;;;;;;8.20;1.13;;;;;;;15.71;100.00;100928.59;4865606;29;20065;-77
2023/10/03 09:29:29;;;;;;;5.68;0.90;;;;;;;15.70;100.00;100934.78;4890225;29;20056;-77
2023/10/03 09:32:12;;;;;;;3.67;0.70;;;;;;;15.68;100.00;100943.72;4826856;29;20061;-78
2023/10/03 09:34:56;;;;;;;6.03;1.30;;;;;;;15.66;100.00;100950.81;4835330;29;20049;-78
2023/10/03 09:37:30;;;;;;;6.15;1.60;;;;;;;15.64;100.00;100964.13;4875026;29;20053;-77
2023/10/03 09:40:00;;;;;;;4.57;1.10;;;;;;;15.63;100.00;100965.00;4879277;29;20053;-78
2023/10/03 09:42:32;;;;;;;3.80;0.80;;;;;;;15.64;100.00;100965.91;4865447;29;20061;-77
2023/10/03 09:44:59;;;;;;;3.33;1.20;;;;;;;15.65;100.00;100968.56;4888388;29;20449;-78
2023/10/03 09:47:30;;;;;;;3.63;1.10;;;;;;;15.68;100.00;100980.91;4826213;29;20049;-78
2023/10/03 09:50:06;;;;;;;3.83;0.95;;;;;;;15.64;100.00;100982.72;4859133;29;20049;-77
2023/10/03 09:52:36;;;;;;;2.72;0.70;;;;;;;15.63;100.00;100991.56;4877871;29;20063;-77
2023/10/03 09:55:26;;;;;;;3.47;0.57;;;;;;;15.62;100.00;100996.94;4874562;29;20061;-79
2023/10/03 09:57:59;;;;;;;1.65;0.60;;;;;;;15.56;100.00;101020.03;4858924;29;20060;-80
2023/10/03 10:03:36;;;;;;;2.80;0.90;;;;;;;15.55;100.00;101018.25;4798491;29;20409;-79
2023/10/03 10:06:37;;;;;;;3.25;0.90;;;;;;;15.50;100.00;101033.41;4867827;29;20060;-79
2023/10/03 10:09:13;;;;;;;5.40;0.85;;;;;;;15.44;100.00;101059.16;4868985;29;20053;-79
2023/10/03 10:12:18;;;;;;;4.75;1.20;;;;;;;15.38;100.00;101058.31;4870965;29;20053;-79
2023/10/03 10:15:00;;;;;;;6.50;1.58;;;;;;;15.36;100.00;101083.16;4871311;29;20052;-79
2023/10/03 10:17:51;;;;;;;3.03;1.00;;;;;;;15.33;100.00;101086.72;4840905;29;20060;-79
2023/10/03 10:20:38;;;;;;;4.57;0.80;;;;;;;15.34;100.00;101082.28;4863809;29;20049;-79
2023/10/03 10:25:50;;;;;;;1.88;0.70;;;;;;;15.29;100.00;101095.63;4868169;29;20057;-80
2023/10/03 10:28:23;;;;;;;4.20;1.00;;;;;;;15.25;100.00;101117.78;4883776;29;20057;-80
2023/10/03 10:31:21;;;;;;;3.33;0.88;;;;;;;15.20;100.00;101120.50;4865766;29;20056;-78
2023/10/03 10:34:10;;;;;;;2.70;0.75;;;;;;;15.13;100.00;101125.91;4830410;29;20458;-77
2023/10/03 10:37:03;;;;;;;2.13;0.75;;;;;;;15.04;100.00;101123.34;4859440;29;20048;-78
2023/10/03 10:40:09;;;;;;;6.18;1.00;;;;;;;14.99;100.00;101128.72;4878251;29;20118;-79
2023/10/03 10:42:59;;;;;;;3.33;1.00;;;;;;;14.95;100.00;101126.97;4896650;29;20056;-78
2023/10/03 10:45:37;;;;;;;5.82;1.33;;;;;;;14.93;100.00;101139.38;4889881;29;20052;-80
2023/10/03 10:48:07;;;;;;;4.35;1.10;;;;;;;14.89;100.00;101137.66;4880568;29;20048;-79
2023/10/03 10:51:07;;;;;;;1.75;1.00;;;;;;;14.90;100.00;101147.38;4830926;29;20060;-79
2023/10/03 10:53:44;;;;;;;8.80;1.70;;;;;;;14.90;100.00;101165.97;4858202;29;20084;-79
2023/10/03 10:56:13;;;;;;;8.02;2.10;;;;;;;14.90;100.00;101179.22;4897238;29;20056;-79
2023/10/03 10:59:01;;;;;;;5.93;1.48;;;;;;;14.85;100.00;101178.38;4885527;29;20056;-79
2023/10/03 11:01:38;;;;;;;6.25;1.52;;;;;;;14.85;100.00;101183.69;4859130;29;20064;-77
2023/10/03 11:04:06;;;;;;;9.60;2.20;;;;;;;14.88;100.00;101173.94;4898140;29;20044;-78
2023/10/03 11:06:34;;;;;;;7.85;1.75;;;;;;;14.89;100.00;101177.47;4822713;29;20056;-78
2023/10/03 11:09:01;;;;;;;12.63;2.65;;;;;;;14.95;100.00;101180.03;4870408;29;20037;-78
2023/10/03 11:11:41;;;;;;;4.20;1.90;;;;;;;15.05;100.00;101187.03;4881613;29;20081;-77
2023/10/03 11:14:09;;;;;;;10.88;2.10;;;;;;;15.15;100.00;101191.34;4890428;29;20048;-77
2023/10/03 11:16:36;;;;;;;7.80;2.10;;;;;;;15.21;100.00;101191.28;4872295;29;21485;-78
2023/10/03 11:19:04;;;;;;;6.53;2.00;;;;;;;15.28;100.00;101204.50;4888923;29;20045;-78
2023/10/03 11:21:33;;;;;;;6.15;2.53;;;;;;;15.33;100.00;101202.66;4819166;29;20056;-78
2023/10/03 11:24:15;;;;;;;10.13;2.78;;;;;;;15.34;100.00;101199.13;4874369;29;20044;-78
2023/10/03 11:26:53;;;;;;;10.45;2.55;;;;;;;15.36;100.00;101202.63;4881708;29;20440;-78
2023/10/03 11:29:43;;;;;;;8.73;2.70;;;;;;;15.39;100.00;101205.28;4891038;29;20047;-77
2023/10/03 11:32:19;;;;;;;5.13;2.15;;;;;;;15.41;100.00;101203.47;4860308;29;20049;-77
2023/10/03 11:34:48;;;;;;;10.25;2.88;;;;;;;15.40;100.00;101214.97;4874485;29;20045;-77
2023/10/03 11:37:39;;;;;;;6.28;2.22;;;;;;;15.42;100.00;101218.50;4820274;29;20049;-78